sensor_id;sensor_type;location;lat;lon;timestamp;P1;durP1;ratioP1;P2;durP2;ratioP2
20038;SDS011;21737;42.868;25.320;2023-05-08T00:02:05;5.37;;;2.83;;
20038;SDS011;21737;42.868;25.320;2023-05-08T00:05:06;5.17;;;3.60;;
20038;SDS011;21737;42.868;25.320;2023-05-08T00:08:08;6.63;;;3.37;;
20038;SDS011;21737;42.868;25.320;2023-05-08T00:11:10;7.43;;;3.13;;
20038;SDS011;21737;42.868;25.320;2023-05-08T00:14:11;4.60;;;3.20;;
20038;SDS011;21737;42.868;25.320;2023-05-08T00:17:13;4.23;;;3.20;;
20038;SDS011;21737;42.868;25.320;2023-05-08T00:20:15;4.47;;;3.07;;
20038;SDS011;21737;42.868;25.320;2023-05-08T00:23:16;8.43;;;3.60;;
20038;SDS011;21737;42.868;25.320;2023-05-08T00:26:18;5.47;;;3.20;;
20038;SDS011;21737;42.868;25.320;2023-05-08T00:29:21;4.20;;;3.20;;
20038;SDS011;21737;42.868;25.320;2023-05-08T00:32:23;9.23;;;3.33;;
20038;SDS011;21737;42.868;25.320;2023-05-08T00:35:26;4.90;;;3.50;;
20038;SDS011;21737;42.868;25.320;2023-05-08T00:38:31;4.43;;;3.20;;
20038;SDS011;21737;42.868;25.320;2023-05-08T00:41:33;5.43;;;3.30;;
20038;SDS011;21737;42.868;25.320;2023-05-08T00:44:34;6.27;;;3.43;;
20038;SDS011;21737;42.868;25.320;2023-05-08T00:47:36;7.90;;;3.33;;
20038;SDS011;21737;42.868;25.320;2023-05-08T00:50:38;8.83;;;3.63;;
20038;SDS011;21737;42.868;25.320;2023-05-08T00:53:41;7.43;;;3.17;;
20038;SDS011;21737;42.868;25.320;2023-05-08T00:56:43;5.60;;;3.40;;
20038;SDS011;21737;42.868;25.320;2023-05-08T00:59:45;8.67;;;3.83;;
20038;SDS011;21737;42.868;25.320;2023-05-08T01:02:48;4.50;;;3.70;;
20038;SDS011;21737;42.868;25.320;2023-05-08T01:05:50;6.10;;;3.77;;
20038;SDS011;21737;42.868;25.320;2023-05-08T01:08:52;4.80;;;3.40;;
20038;SDS011;21737;42.868;25.320;2023-05-08T01:12:02;7.23;;;3.63;;
20038;SDS011;21737;42.868;25.320;2023-05-08T01:15:11;6.90;;;3.73;;
20038;SDS011;21737;42.868;25.320;2023-05-08T01:18:31;6.00;;;3.67;;
20038;SDS011;21737;42.868;25.320;2023-05-08T01:21:45;4.43;;;3.50;;
20038;SDS011;21737;42.868;25.320;2023-05-08T01:37:16;3.97;;;3.27;;
20038;SDS011;21737;42.868;25.320;2023-05-08T01:41:06;4.03;;;3.10;;
20038;SDS011;21737;42.868;25.320;2023-05-08T01:46:57;3.83;;;3.27;;
20038;SDS011;21737;42.868;25.320;2023-05-08T01:50:13;6.67;;;2.80;;
20038;SDS011;21737;42.868;25.320;2023-05-08T01:53:29;3.83;;;3.00;;
20038;SDS011;21737;42.868;25.320;2023-05-08T01:56:34;5.10;;;3.43;;
20038;SDS011;21737;42.868;25.320;2023-05-08T01:59:38;4.53;;;3.20;;
20038;SDS011;21737;42.868;25.320;2023-05-08T02:02:44;4.80;;;3.10;;
20038;SDS011;21737;42.868;25.320;2023-05-08T02:05:47;8.17;;;3.67;;
20038;SDS011;21737;42.868;25.320;2023-05-08T02:08:53;6.20;;;3.33;;
20038;SDS011;21737;42.868;25.320;2023-05-08T02:11:56;6.93;;;3.13;;
20038;SDS011;21737;42.868;25.320;2023-05-08T02:15:00;4.57;;;2.87;;
20038;SDS011;21737;42.868;25.320;2023-05-08T02:18:03;4.43;;;3.20;;
20038;SDS011;21737;42.868;25.320;2023-05-08T02:21:05;5.23;;;3.30;;
20038;SDS011;21737;42.868;25.320;2023-05-08T02:24:09;6.73;;;3.30;;
20038;SDS011;21737;42.868;25.320;2023-05-08T02:27:12;4.67;;;3.07;;
20038;SDS011;21737;42.868;25.320;2023-05-08T02:30:14;6.13;;;3.60;;
20038;SDS011;21737;42.868;25.320;2023-05-08T02:33:17;4.70;;;3.27;;
20038;SDS011;21737;42.868;25.320;2023-05-08T02:36:19;5.83;;;3.33;;
20038;SDS011;21737;42.868;25.320;2023-05-08T02:39:21;4.07;;;3.33;;
20038;SDS011;21737;42.868;25.320;2023-05-08T02:42:25;4.47;;;3.27;;
20038;SDS011;21737;42.868;25.320;2023-05-08T02:45:29;4.83;;;3.27;;
20038;SDS011;21737;42.868;25.320;2023-05-08T02:48:37;5.50;;;3.50;;
20038;SDS011;21737;42.868;25.320;2023-05-08T02:51:46;5.80;;;3.30;;
20038;SDS011;21737;42.868;25.320;2023-05-08T03:01:20;4.37;;;3.27;;
20038;SDS011;21737;42.868;25.320;2023-05-08T03:04:30;5.67;;;3.40;;
20038;SDS011;21737;42.868;25.320;2023-05-08T03:07:32;4.63;;;3.27;;
20038;SDS011;21737;42.868;25.320;2023-05-08T03:10:36;4.63;;;3.50;;
20038;SDS011;21737;42.868;25.320;2023-05-08T03:13:39;4.77;;;3.77;;
20038;SDS011;21737;42.868;25.320;2023-05-08T03:16:42;4.60;;;3.23;;
20038;SDS011;21737;42.868;25.320;2023-05-08T03:19:48;7.67;;;3.97;;
20038;SDS011;21737;42.868;25.320;2023-05-08T03:22:50;4.70;;;3.73;;
20038;SDS011;21737;42.868;25.320;2023-05-08T03:25:53;6.03;;;4.03;;
20038;SDS011;21737;42.868;25.320;2023-05-08T03:28:55;4.57;;;3.70;;
20038;SDS011;21737;42.868;25.320;2023-05-08T03:32:02;6.77;;;3.60;;
20038;SDS011;21737;42.868;25.320;2023-05-08T03:35:04;5.27;;;3.33;;
20038;SDS011;21737;42.868;25.320;2023-05-08T03:38:07;8.77;;;3.50;;
20038;SDS011;21737;42.868;25.320;2023-05-08T03:41:09;6.37;;;3.97;;
20038;SDS011;21737;42.868;25.320;2023-05-08T03:44:11;5.73;;;4.03;;
20038;SDS011;21737;42.868;25.320;2023-05-08T03:47:13;5.13;;;3.30;;
20038;SDS011;21737;42.868;25.320;2023-05-08T03:50:15;4.63;;;3.70;;
20038;SDS011;21737;42.868;25.320;2023-05-08T03:53:17;5.73;;;3.80;;
20038;SDS011;21737;42.868;25.320;2023-05-08T03:56:18;7.27;;;3.80;;
20038;SDS011;21737;42.868;25.320;2023-05-08T03:59:31;4.83;;;4.20;;
20038;SDS011;21737;42.868;25.320;2023-05-08T04:02:43;9.63;;;4.73;;
20038;SDS011;21737;42.868;25.320;2023-05-08T04:05:59;6.93;;;4.00;;
20038;SDS011;21737;42.868;25.320;2023-05-08T04:15:38;4.97;;;3.87;;
20038;SDS011;21737;42.868;25.320;2023-05-08T04:18:46;4.17;;;3.77;;
20038;SDS011;21737;42.868;25.320;2023-05-08T04:21:50;5.60;;;4.07;;
20038;SDS011;21737;42.868;25.320;2023-05-08T04:24:57;5.57;;;3.70;;
20038;SDS011;21737;42.868;25.320;2023-05-08T04:28:03;5.20;;;3.90;;
20038;SDS011;21737;42.868;25.320;2023-05-08T04:31:05;6.63;;;4.50;;
20038;SDS011;21737;42.868;25.320;2023-05-08T04:34:08;6.40;;;4.03;;
20038;SDS011;21737;42.868;25.320;2023-05-08T04:37:28;6.20;;;3.83;;
20038;SDS011;21737;42.868;25.320;2023-05-08T04:40:34;4.57;;;3.30;;
20038;SDS011;21737;42.868;25.320;2023-05-08T04:43:36;6.80;;;4.00;;
20038;SDS011;21737;42.868;25.320;2023-05-08T04:46:40;5.43;;;3.60;;
20038;SDS011;21737;42.868;25.320;2023-05-08T04:49:42;5.83;;;4.00;;
20038;SDS011;21737;42.868;25.320;2023-05-08T04:52:43;3.77;;;3.13;;
20038;SDS011;21737;42.868;25.320;2023-05-08T04:55:45;4.53;;;3.37;;
20038;SDS011;21737;42.868;25.320;2023-05-08T04:58:47;8.53;;;4.20;;
20038;SDS011;21737;42.868;25.320;2023-05-08T05:01:49;8.03;;;4.00;;
20038;SDS011;21737;42.868;25.320;2023-05-08T05:04:51;7.63;;;4.00;;
20038;SDS011;21737;42.868;25.320;2023-05-08T05:07:53;8.60;;;4.50;;
20038;SDS011;21737;42.868;25.320;2023-05-08T05:10:55;6.87;;;4.67;;
20038;SDS011;21737;42.868;25.320;2023-05-08T05:13:57;8.20;;;4.20;;
20038;SDS011;21737;42.868;25.320;2023-05-08T05:16:59;6.90;;;3.93;;
20038;SDS011;21737;42.868;25.320;2023-05-08T05:20:00;7.77;;;3.83;;
20038;SDS011;21737;42.868;25.320;2023-05-08T05:23:03;9.47;;;4.00;;
20038;SDS011;21737;42.868;25.320;2023-05-08T05:26:05;4.37;;;3.53;;
20038;SDS011;21737;42.868;25.320;2023-05-08T05:29:06;4.97;;;3.50;;
20038;SDS011;21737;42.868;25.320;2023-05-08T05:32:08;4.97;;;3.20;;
20038;SDS011;21737;42.868;25.320;2023-05-08T05:35:12;6.10;;;3.03;;
20038;SDS011;21737;42.868;25.320;2023-05-08T05:38:15;4.90;;;2.80;;
20038;SDS011;21737;42.868;25.320;2023-05-08T05:41:16;6.47;;;2.90;;
20038;SDS011;21737;42.868;25.320;2023-05-08T05:44:19;3.83;;;2.80;;
20038;SDS011;21737;42.868;25.320;2023-05-08T05:47:21;4.93;;;3.07;;
20038;SDS011;21737;42.868;25.320;2023-05-08T05:50:23;4.00;;;2.90;;
20038;SDS011;21737;42.868;25.320;2023-05-08T05:53:25;5.27;;;3.57;;
20038;SDS011;21737;42.868;25.320;2023-05-08T05:56:27;5.93;;;3.57;;
20038;SDS011;21737;42.868;25.320;2023-05-08T05:59:29;7.80;;;3.30;;
20038;SDS011;21737;42.868;25.320;2023-05-08T06:02:31;3.87;;;3.10;;
20038;SDS011;21737;42.868;25.320;2023-05-08T06:05:34;8.90;;;4.33;;
20038;SDS011;21737;42.868;25.320;2023-05-08T06:08:36;3.53;;;3.20;;
20038;SDS011;21737;42.868;25.320;2023-05-08T06:11:37;5.20;;;3.67;;
20038;SDS011;21737;42.868;25.320;2023-05-08T06:14:39;5.30;;;3.20;;
20038;SDS011;21737;42.868;25.320;2023-05-08T06:17:41;4.10;;;3.17;;
20038;SDS011;21737;42.868;25.320;2023-05-08T06:20:43;6.97;;;3.40;;
20038;SDS011;21737;42.868;25.320;2023-05-08T06:23:45;4.50;;;3.30;;
20038;SDS011;21737;42.868;25.320;2023-05-08T06:26:47;7.47;;;3.60;;
20038;SDS011;21737;42.868;25.320;2023-05-08T06:29:49;7.10;;;3.57;;
20038;SDS011;21737;42.868;25.320;2023-05-08T06:32:56;9.40;;;4.07;;
20038;SDS011;21737;42.868;25.320;2023-05-08T06:35:57;9.47;;;4.03;;
20038;SDS011;21737;42.868;25.320;2023-05-08T06:38:59;6.37;;;4.30;;
20038;SDS011;21737;42.868;25.320;2023-05-08T06:42:01;6.57;;;3.70;;
20038;SDS011;21737;42.868;25.320;2023-05-08T06:45:04;8.13;;;3.58;;
20038;SDS011;21737;42.868;25.320;2023-05-08T06:48:06;4.88;;;3.53;;
20038;SDS011;21737;42.868;25.320;2023-05-08T06:51:08;7.28;;;3.50;;
20038;SDS011;21737;42.868;25.320;2023-05-08T06:54:10;4.35;;;3.35;;
20038;SDS011;21737;42.868;25.320;2023-05-08T06:57:17;5.35;;;3.72;;
20038;SDS011;21737;42.868;25.320;2023-05-08T07:00:18;6.20;;;3.85;;
20038;SDS011;21737;42.868;25.320;2023-05-08T07:03:20;5.80;;;3.28;;
20038;SDS011;21737;42.868;25.320;2023-05-08T07:06:26;8.52;;;5.30;;
20038;SDS011;21737;42.868;25.320;2023-05-08T07:09:30;8.38;;;4.38;;
20038;SDS011;21737;42.868;25.320;2023-05-08T07:12:32;7.80;;;4.38;;
20038;SDS011;21737;42.868;25.320;2023-05-08T07:15:34;6.35;;;4.22;;
20038;SDS011;21737;42.868;25.320;2023-05-08T07:18:47;8.52;;;7.45;;
20038;SDS011;21737;42.868;25.320;2023-05-08T07:21:49;11.82;;;9.63;;
20038;SDS011;21737;42.868;25.320;2023-05-08T07:24:51;8.45;;;4.97;;
20038;SDS011;21737;42.868;25.320;2023-05-08T07:27:52;5.43;;;4.50;;
20038;SDS011;21737;42.868;25.320;2023-05-08T07:30:54;8.70;;;4.10;;
20038;SDS011;21737;42.868;25.320;2023-05-08T07:33:59;7.25;;;3.40;;
20038;SDS011;21737;42.868;25.320;2023-05-08T07:37:01;6.47;;;3.88;;
20038;SDS011;21737;42.868;25.320;2023-05-08T07:40:03;4.75;;;3.08;;
20038;SDS011;21737;42.868;25.320;2023-05-08T07:43:06;5.97;;;4.20;;
20038;SDS011;21737;42.868;25.320;2023-05-08T07:46:08;5.80;;;3.72;;
20038;SDS011;21737;42.868;25.320;2023-05-08T07:49:16;3.90;;;3.10;;
20038;SDS011;21737;42.868;25.320;2023-05-08T07:52:17;5.00;;;3.92;;
20038;SDS011;21737;42.868;25.320;2023-05-08T07:55:19;4.60;;;3.83;;
20038;SDS011;21737;42.868;25.320;2023-05-08T07:58:21;4.13;;;3.63;;
20038;SDS011;21737;42.868;25.320;2023-05-08T08:01:24;3.90;;;3.13;;
20038;SDS011;21737;42.868;25.320;2023-05-08T08:04:27;5.90;;;3.10;;
20038;SDS011;21737;42.868;25.320;2023-05-08T08:07:28;7.40;;;3.03;;
20038;SDS011;21737;42.868;25.320;2023-05-08T08:10:33;4.10;;;3.13;;
20038;SDS011;21737;42.868;25.320;2023-05-08T08:13:35;4.65;;;3.00;;
20038;SDS011;21737;42.868;25.320;2023-05-08T08:16:39;5.72;;;3.00;;
20038;SDS011;21737;42.868;25.320;2023-05-08T08:19:41;5.97;;;3.03;;
20038;SDS011;21737;42.868;25.320;2023-05-08T08:22:45;4.88;;;3.50;;
20038;SDS011;21737;42.868;25.320;2023-05-08T08:25:47;3.92;;;2.72;;
20038;SDS011;21737;42.868;25.320;2023-05-08T08:28:49;3.50;;;2.58;;
20038;SDS011;21737;42.868;25.320;2023-05-08T08:31:51;6.43;;;3.70;;
20038;SDS011;21737;42.868;25.320;2023-05-08T08:34:56;2.88;;;2.67;;
20038;SDS011;21737;42.868;25.320;2023-05-08T08:37:58;5.32;;;2.80;;
20038;SDS011;21737;42.868;25.320;2023-05-08T08:40:59;3.90;;;3.30;;
20038;SDS011;21737;42.868;25.320;2023-05-08T08:44:01;5.57;;;3.10;;
20038;SDS011;21737;42.868;25.320;2023-05-08T08:47:03;4.60;;;3.40;;
20038;SDS011;21737;42.868;25.320;2023-05-08T08:50:07;7.95;;;3.80;;
20038;SDS011;21737;42.868;25.320;2023-05-08T08:53:20;4.50;;;3.20;;
20038;SDS011;21737;42.868;25.320;2023-05-08T08:56:22;5.60;;;3.17;;
20038;SDS011;21737;42.868;25.320;2023-05-08T08:59:24;3.20;;;2.90;;
20038;SDS011;21737;42.868;25.320;2023-05-08T09:02:26;4.78;;;3.15;;
20038;SDS011;21737;42.868;25.320;2023-05-08T09:05:30;3.60;;;3.30;;
20038;SDS011;21737;42.868;25.320;2023-05-08T09:08:32;3.80;;;3.38;;
20038;SDS011;21737;42.868;25.320;2023-05-08T09:11:34;4.90;;;3.30;;
20038;SDS011;21737;42.868;25.320;2023-05-08T09:14:36;3.90;;;3.10;;
20038;SDS011;21737;42.868;25.320;2023-05-08T09:17:38;3.58;;;3.08;;
20038;SDS011;21737;42.868;25.320;2023-05-08T09:20:40;3.60;;;2.97;;
20038;SDS011;21737;42.868;25.320;2023-05-08T09:26:55;4.22;;;2.97;;
20038;SDS011;21737;42.868;25.320;2023-05-08T09:30:07;3.17;;;2.88;;
20038;SDS011;21737;42.868;25.320;2023-05-08T09:33:10;2.80;;;2.60;;
20038;SDS011;21737;42.868;25.320;2023-05-08T09:36:23;4.40;;;3.03;;
20038;SDS011;21737;42.868;25.320;2023-05-08T09:39:25;5.63;;;2.83;;
20038;SDS011;21737;42.868;25.320;2023-05-08T09:42:26;5.43;;;3.53;;
20038;SDS011;21737;42.868;25.320;2023-05-08T09:45:37;4.60;;;3.13;;
20038;SDS011;21737;42.868;25.320;2023-05-08T09:48:40;5.43;;;3.28;;
20038;SDS011;21737;42.868;25.320;2023-05-08T09:51:50;3.75;;;3.20;;
20038;SDS011;21737;42.868;25.320;2023-05-08T09:58:06;9.10;;;3.30;;
20038;SDS011;21737;42.868;25.320;2023-05-08T10:01:26;6.65;;;3.28;;
20038;SDS011;21737;42.868;25.320;2023-05-08T10:04:31;3.30;;;3.00;;
20038;SDS011;21737;42.868;25.320;2023-05-08T10:07:34;2.90;;;2.65;;
20038;SDS011;21737;42.868;25.320;2023-05-08T10:10:37;3.05;;;2.75;;
20038;SDS011;21737;42.868;25.320;2023-05-08T10:13:39;3.65;;;3.03;;
20038;SDS011;21737;42.868;25.320;2023-05-08T10:16:41;4.23;;;3.10;;
20038;SDS011;21737;42.868;25.320;2023-05-08T10:19:44;3.42;;;2.88;;
20038;SDS011;21737;42.868;25.320;2023-05-08T10:22:47;7.70;;;3.38;;
20038;SDS011;21737;42.868;25.320;2023-05-08T10:25:51;8.10;;;4.32;;
20038;SDS011;21737;42.868;25.320;2023-05-08T10:28:59;6.15;;;3.10;;
20038;SDS011;21737;42.868;25.320;2023-05-08T10:32:04;3.45;;;2.72;;
20038;SDS011;21737;42.868;25.320;2023-05-08T10:35:11;5.03;;;2.80;;
20038;SDS011;21737;42.868;25.320;2023-05-08T10:38:13;6.15;;;3.60;;
20038;SDS011;21737;42.868;25.320;2023-05-08T10:41:15;7.45;;;4.63;;
20038;SDS011;21737;42.868;25.320;2023-05-08T10:44:17;4.43;;;3.30;;
20038;SDS011;21737;42.868;25.320;2023-05-08T10:53:51;4.68;;;3.47;;
20038;SDS011;21737;42.868;25.320;2023-05-08T10:57:05;3.53;;;3.22;;
20038;SDS011;21737;42.868;25.320;2023-05-08T11:00:08;6.07;;;3.33;;
20038;SDS011;21737;42.868;25.320;2023-05-08T11:03:10;3.93;;;3.50;;
20038;SDS011;21737;42.868;25.320;2023-05-08T11:06:43;4.00;;;3.40;;
20038;SDS011;21737;42.868;25.320;2023-05-08T11:09:46;3.80;;;3.13;;
20038;SDS011;21737;42.868;25.320;2023-05-08T11:12:48;6.03;;;3.50;;
20038;SDS011;21737;42.868;25.320;2023-05-08T11:15:50;6.37;;;3.83;;
20038;SDS011;21737;42.868;25.320;2023-05-08T11:22:13;6.13;;;3.20;;
20038;SDS011;21737;42.868;25.320;2023-05-08T11:25:15;7.47;;;3.17;;
20038;SDS011;21737;42.868;25.320;2023-05-08T11:28:17;3.60;;;2.97;;
20038;SDS011;21737;42.868;25.320;2023-05-08T11:31:18;7.27;;;3.43;;
20038;SDS011;21737;42.868;25.320;2023-05-08T11:37:41;5.27;;;3.03;;
20038;SDS011;21737;42.868;25.320;2023-05-08T11:41:06;5.13;;;3.37;;
20038;SDS011;21737;42.868;25.320;2023-05-08T11:44:15;5.50;;;3.07;;
20038;SDS011;21737;42.868;25.320;2023-05-08T11:47:17;5.90;;;3.30;;
20038;SDS011;21737;42.868;25.320;2023-05-08T11:50:20;4.40;;;3.40;;
20038;SDS011;21737;42.868;25.320;2023-05-08T11:53:24;6.63;;;4.00;;
20038;SDS011;21737;42.868;25.320;2023-05-08T11:56:26;5.07;;;3.70;;
20038;SDS011;21737;42.868;25.320;2023-05-08T11:59:28;5.33;;;3.30;;
20038;SDS011;21737;42.868;25.320;2023-05-08T12:02:39;7.63;;;4.10;;
20038;SDS011;21737;42.868;25.320;2023-05-08T12:05:41;6.80;;;3.70;;
20038;SDS011;21737;42.868;25.320;2023-05-08T12:08:43;4.87;;;3.60;;
20038;SDS011;21737;42.868;25.320;2023-05-08T12:11:44;6.73;;;3.63;;
20038;SDS011;21737;42.868;25.320;2023-05-08T12:14:49;4.00;;;3.20;;
20038;SDS011;21737;42.868;25.320;2023-05-08T12:18:01;7.07;;;3.77;;
20038;SDS011;21737;42.868;25.320;2023-05-08T12:21:05;5.40;;;3.77;;
20038;SDS011;21737;42.868;25.320;2023-05-08T12:24:09;8.60;;;4.30;;
20038;SDS011;21737;42.868;25.320;2023-05-08T12:27:11;4.73;;;3.57;;
20038;SDS011;21737;42.868;25.320;2023-05-08T12:30:13;3.63;;;3.30;;
20038;SDS011;21737;42.868;25.320;2023-05-08T12:33:15;5.50;;;3.53;;
20038;SDS011;21737;42.868;25.320;2023-05-08T12:36:17;6.83;;;3.77;;
20038;SDS011;21737;42.868;25.320;2023-05-08T12:39:19;6.47;;;3.20;;
20038;SDS011;21737;42.868;25.320;2023-05-08T12:42:21;9.10;;;3.27;;
20038;SDS011;21737;42.868;25.320;2023-05-08T12:45:26;5.30;;;3.80;;
20038;SDS011;21737;42.868;25.320;2023-05-08T12:48:29;8.13;;;3.73;;
20038;SDS011;21737;42.868;25.320;2023-05-08T12:51:31;7.33;;;4.30;;
20038;SDS011;21737;42.868;25.320;2023-05-08T12:54:33;7.33;;;4.40;;
20038;SDS011;21737;42.868;25.320;2023-05-08T12:57:35;7.53;;;4.40;;
20038;SDS011;21737;42.868;25.320;2023-05-08T13:00:47;7.60;;;4.10;;
20038;SDS011;21737;42.868;25.320;2023-05-08T13:03:51;6.03;;;3.70;;
20038;SDS011;21737;42.868;25.320;2023-05-08T13:07:03;7.27;;;4.83;;
20038;SDS011;21737;42.868;25.320;2023-05-08T13:10:05;10.77;;;5.17;;
20038;SDS011;21737;42.868;25.320;2023-05-08T13:13:08;7.83;;;4.50;;
20038;SDS011;21737;42.868;25.320;2023-05-08T13:16:09;8.63;;;4.10;;
20038;SDS011;21737;42.868;25.320;2023-05-08T13:19:12;5.13;;;3.83;;
20038;SDS011;21737;42.868;25.320;2023-05-08T13:22:15;6.63;;;4.23;;
20038;SDS011;21737;42.868;25.320;2023-05-08T13:25:17;5.37;;;3.97;;
20038;SDS011;21737;42.868;25.320;2023-05-08T13:28:19;6.53;;;4.43;;
20038;SDS011;21737;42.868;25.320;2023-05-08T13:31:20;6.63;;;4.50;;
20038;SDS011;21737;42.868;25.320;2023-05-08T13:34:22;7.73;;;5.20;;
20038;SDS011;21737;42.868;25.320;2023-05-08T13:37:25;10.00;;;6.90;;
20038;SDS011;21737;42.868;25.320;2023-05-08T13:40:27;12.17;;;7.40;;
20038;SDS011;21737;42.868;25.320;2023-05-08T13:43:29;13.53;;;6.73;;
20038;SDS011;21737;42.868;25.320;2023-05-08T13:46:30;13.37;;;7.67;;
20038;SDS011;21737;42.868;25.320;2023-05-08T13:49:32;12.30;;;7.13;;
20038;SDS011;21737;42.868;25.320;2023-05-08T13:52:34;13.87;;;7.73;;
20038;SDS011;21737;42.868;25.320;2023-05-08T13:55:35;11.27;;;7.63;;
20038;SDS011;21737;42.868;25.320;2023-05-08T13:58:37;10.33;;;7.33;;
20038;SDS011;21737;42.868;25.320;2023-05-08T14:01:39;9.60;;;7.50;;
20038;SDS011;21737;42.868;25.320;2023-05-08T14:04:41;10.60;;;7.53;;
20038;SDS011;21737;42.868;25.320;2023-05-08T14:07:42;10.77;;;6.87;;
20038;SDS011;21737;42.868;25.320;2023-05-08T14:10:45;9.93;;;7.03;;
20038;SDS011;21737;42.868;25.320;2023-05-08T14:13:46;17.43;;;7.70;;
20038;SDS011;21737;42.868;25.320;2023-05-08T14:16:48;9.63;;;7.23;;
20038;SDS011;21737;42.868;25.320;2023-05-08T14:19:51;13.17;;;7.77;;
20038;SDS011;21737;42.868;25.320;2023-05-08T14:22:53;12.03;;;7.77;;
20038;SDS011;21737;42.868;25.320;2023-05-08T14:25:54;8.70;;;6.77;;
20038;SDS011;21737;42.868;25.320;2023-05-08T14:28:56;13.47;;;6.87;;
20038;SDS011;21737;42.868;25.320;2023-05-08T14:31:57;9.83;;;6.30;;
20038;SDS011;21737;42.868;25.320;2023-05-08T14:34:59;8.57;;;6.33;;
20038;SDS011;21737;42.868;25.320;2023-05-08T14:38:01;11.53;;;6.23;;
20038;SDS011;21737;42.868;25.320;2023-05-08T14:41:03;9.13;;;6.10;;
20038;SDS011;21737;42.868;25.320;2023-05-08T14:44:05;7.33;;;5.73;;
20038;SDS011;21737;42.868;25.320;2023-05-08T14:47:07;7.97;;;6.50;;
20038;SDS011;21737;42.868;25.320;2023-05-08T14:50:08;12.53;;;6.63;;
20038;SDS011;21737;42.868;25.320;2023-05-08T14:53:10;10.33;;;6.80;;
20038;SDS011;21737;42.868;25.320;2023-05-08T14:56:12;10.10;;;6.70;;
20038;SDS011;21737;42.868;25.320;2023-05-08T14:59:14;7.90;;;6.30;;
20038;SDS011;21737;42.868;25.320;2023-05-08T15:02:16;10.40;;;6.27;;
20038;SDS011;21737;42.868;25.320;2023-05-08T15:05:18;8.77;;;5.60;;
20038;SDS011;21737;42.868;25.320;2023-05-08T15:08:20;9.10;;;5.60;;
20038;SDS011;21737;42.868;25.320;2023-05-08T15:11:22;9.13;;;5.63;;
20038;SDS011;21737;42.868;25.320;2023-05-08T15:14:29;7.40;;;5.73;;
20038;SDS011;21737;42.868;25.320;2023-05-08T15:17:30;10.73;;;5.63;;
20038;SDS011;21737;42.868;25.320;2023-05-08T15:20:35;6.63;;;5.50;;
20038;SDS011;21737;42.868;25.320;2023-05-08T15:23:37;9.80;;;6.60;;
20038;SDS011;21737;42.868;25.320;2023-05-08T15:26:38;11.30;;;6.97;;
20038;SDS011;21737;42.868;25.320;2023-05-08T15:29:43;12.20;;;6.47;;
20038;SDS011;21737;42.868;25.320;2023-05-08T15:32:45;8.67;;;6.27;;
20038;SDS011;21737;42.868;25.320;2023-05-08T15:35:46;11.23;;;5.87;;
20038;SDS011;21737;42.868;25.320;2023-05-08T15:38:48;12.73;;;6.80;;
20038;SDS011;21737;42.868;25.320;2023-05-08T15:41:50;10.87;;;6.80;;
20038;SDS011;21737;42.868;25.320;2023-05-08T15:44:56;9.97;;;6.73;;
20038;SDS011;21737;42.868;25.320;2023-05-08T15:47:58;11.00;;;6.70;;
20038;SDS011;21737;42.868;25.320;2023-05-08T15:51:00;11.50;;;6.67;;
20038;SDS011;21737;42.868;25.320;2023-05-08T15:54:04;11.87;;;7.03;;
20038;SDS011;21737;42.868;25.320;2023-05-08T15:57:06;11.00;;;6.60;;
20038;SDS011;21737;42.868;25.320;2023-05-08T16:00:08;9.77;;;7.30;;
20038;SDS011;21737;42.868;25.320;2023-05-08T16:03:10;11.43;;;7.03;;
20038;SDS011;21737;42.868;25.320;2023-05-08T16:06:13;11.47;;;7.70;;
20038;SDS011;21737;42.868;25.320;2023-05-08T16:09:15;13.87;;;8.00;;
20038;SDS011;21737;42.868;25.320;2023-05-08T16:12:19;11.07;;;5.77;;
20038;SDS011;21737;42.868;25.320;2023-05-08T16:15:21;12.00;;;8.23;;
20038;SDS011;21737;42.868;25.320;2023-05-08T16:18:23;10.30;;;6.07;;
20038;SDS011;21737;42.868;25.320;2023-05-08T16:21:24;12.03;;;6.37;;
20038;SDS011;21737;42.868;25.320;2023-05-08T16:24:27;14.40;;;6.67;;
20038;SDS011;21737;42.868;25.320;2023-05-08T16:27:32;12.73;;;6.00;;
20038;SDS011;21737;42.868;25.320;2023-05-08T16:30:33;8.77;;;5.83;;
20038;SDS011;21737;42.868;25.320;2023-05-08T16:33:35;7.97;;;6.60;;
20038;SDS011;21737;42.868;25.320;2023-05-08T16:36:37;11.57;;;7.03;;
20038;SDS011;21737;42.868;25.320;2023-05-08T16:39:39;12.77;;;6.50;;
20038;SDS011;21737;42.868;25.320;2023-05-08T16:42:41;9.93;;;6.80;;
20038;SDS011;21737;42.868;25.320;2023-05-08T16:45:42;11.63;;;8.57;;
20038;SDS011;21737;42.868;25.320;2023-05-08T16:48:44;11.47;;;6.83;;
20038;SDS011;21737;42.868;25.320;2023-05-08T16:51:48;15.93;;;10.30;;
20038;SDS011;21737;42.868;25.320;2023-05-08T16:54:50;12.83;;;9.80;;
20038;SDS011;21737;42.868;25.320;2023-05-08T16:57:52;12.60;;;8.50;;
20038;SDS011;21737;42.868;25.320;2023-05-08T17:00:54;13.83;;;9.00;;
20038;SDS011;21737;42.868;25.320;2023-05-08T17:03:56;12.03;;;9.30;;
20038;SDS011;21737;42.868;25.320;2023-05-08T17:06:58;11.80;;;9.13;;
20038;SDS011;21737;42.868;25.320;2023-05-08T17:10:00;14.83;;;9.80;;
20038;SDS011;21737;42.868;25.320;2023-05-08T17:13:05;14.07;;;8.47;;
20038;SDS011;21737;42.868;25.320;2023-05-08T17:16:09;13.47;;;9.30;;
20038;SDS011;21737;42.868;25.320;2023-05-08T17:19:11;25.53;;;19.70;;
20038;SDS011;21737;42.868;25.320;2023-05-08T17:22:13;20.03;;;13.67;;
20038;SDS011;21737;42.868;25.320;2023-05-08T17:25:16;14.67;;;9.77;;
20038;SDS011;21737;42.868;25.320;2023-05-08T17:28:17;10.33;;;8.10;;
20038;SDS011;21737;42.868;25.320;2023-05-08T17:31:19;12.47;;;8.30;;
20038;SDS011;21737;42.868;25.320;2023-05-08T17:34:22;11.00;;;7.90;;
20038;SDS011;21737;42.868;25.320;2023-05-08T17:37:24;12.10;;;8.20;;
20038;SDS011;21737;42.868;25.320;2023-05-08T17:40:26;11.30;;;8.27;;
20038;SDS011;21737;42.868;25.320;2023-05-08T17:43:35;13.20;;;8.13;;
20038;SDS011;21737;42.868;25.320;2023-05-08T17:46:42;11.30;;;8.30;;
20038;SDS011;21737;42.868;25.320;2023-05-08T17:49:44;11.70;;;8.63;;
20038;SDS011;21737;42.868;25.320;2023-05-08T17:52:46;10.93;;;8.73;;
20038;SDS011;21737;42.868;25.320;2023-05-08T17:55:48;12.47;;;9.63;;
20038;SDS011;21737;42.868;25.320;2023-05-08T17:58:50;13.67;;;9.27;;
20038;SDS011;21737;42.868;25.320;2023-05-08T18:01:54;11.67;;;8.03;;
20038;SDS011;21737;42.868;25.320;2023-05-08T18:04:56;10.97;;;7.30;;
20038;SDS011;21737;42.868;25.320;2023-05-08T18:07:58;12.80;;;7.30;;
20038;SDS011;21737;42.868;25.320;2023-05-08T18:11:00;12.83;;;7.87;;
20038;SDS011;21737;42.868;25.320;2023-05-08T18:14:02;12.53;;;9.60;;
20038;SDS011;21737;42.868;25.320;2023-05-08T18:17:04;11.93;;;8.40;;
20038;SDS011;21737;42.868;25.320;2023-05-08T18:20:07;10.97;;;8.03;;
20038;SDS011;21737;42.868;25.320;2023-05-08T18:23:19;10.00;;;8.13;;
20038;SDS011;21737;42.868;25.320;2023-05-08T18:26:22;12.93;;;8.70;;
20038;SDS011;21737;42.868;25.320;2023-05-08T18:29:25;11.33;;;8.47;;
20038;SDS011;21737;42.868;25.320;2023-05-08T18:32:26;12.17;;;8.30;;
20038;SDS011;21737;42.868;25.320;2023-05-08T18:35:29;11.40;;;9.17;;
20038;SDS011;21737;42.868;25.320;2023-05-08T18:38:32;12.13;;;7.93;;
20038;SDS011;21737;42.868;25.320;2023-05-08T18:41:34;13.20;;;7.67;;
20038;SDS011;21737;42.868;25.320;2023-05-08T18:44:37;13.93;;;8.43;;
20038;SDS011;21737;42.868;25.320;2023-05-08T18:47:38;12.57;;;8.83;;
20038;SDS011;21737;42.868;25.320;2023-05-08T18:50:43;13.77;;;9.00;;
20038;SDS011;21737;42.868;25.320;2023-05-08T18:53:48;12.77;;;8.70;;